<?xml version="1.0" encoding="UTF-8" standalone="no" ?>
<gpx xmlns="http://www.topografix.com/GPX/1/1" xmlns:xsi="http://www.w3.org/2001/XMLSchema-instance" xsi:schemaLocation="http://www.topografix.com/GPX/1/1 http://www.topografix.com/GPX/1/1/gpx.xsd" version="1.1" creator="VisuGPX - https://www.visugpx.com">
  <metadata>
    <name>Marche du 10/04/2012</name>
    <desc><![CDATA[Marche du 10/04/2012]]></desc>
  </metadata>
  <trk>
    <name><![CDATA[2012-04-10 18:40]]></name>
    <desc><![CDATA[<h1>OruxMaps</h1><br /><hr align="center" width="480" style="height: 2px; width: 517px"/><h2>Nom: 2012-04-10 18:40</h2><br /><p>Temps de départ: 04/10/2012 18:40</p><p>Temps d'arrivée: 04/10/2012 19:53</p><p>Distance: 7,8 km (01:13)</p><p>Temps déplacement: 01:08</p><p>Vitesse moyenne: 6,4 km/h</p><p>Vitesse moyenne: 6,9 km/h</p><p>Vitess Max.: 8,1 km/h</p><p>Altitude minimale: 223 m</p><p>Altitude maximale: 262 m</p><p>Vitesse d'élévation: 191,8 m/h</p><p>Vitesse de descente: -203,5 m/h</p><p>Gain Altitude: 99 m</p><p>Perte Altitude: -105 m</p><p>Temps d'élévation: 00:31</p><p>Temps de descente: 00:30</p><hr align="center" width="480" style="height: 2px; width: 517px"/>]]></desc>
    <trkseg>
      <trkpt lat="45.71787" lon="4.90945">
        <ele>235</ele>
        <time>2012-04-10T16:40:15Z</time>
      </trkpt>
      <trkpt lat="45.71785" lon="4.90917">
        <ele>235.33266</ele>
        <time>2012-04-10T16:40:38Z</time>
      </trkpt>
      <trkpt lat="45.71795" lon="4.90891">
        <ele>235.53143</ele>
        <time>2012-04-10T16:40:48Z</time>
      </trkpt>
      <trkpt lat="45.718" lon="4.90865">
        <ele>235.79271</ele>
        <time>2012-04-10T16:40:59Z</time>
      </trkpt>
      <trkpt lat="45.71811" lon="4.90842">
        <ele>235.44809</ele>
        <time>2012-04-10T16:41:14Z</time>
      </trkpt>
      <trkpt lat="45.71821" lon="4.9082">
        <ele>238.45645</ele>
        <time>2012-04-10T16:41:26Z</time>
      </trkpt>
      <trkpt lat="45.71827" lon="4.90795">
        <ele>237.62369</ele>
        <time>2012-04-10T16:41:39Z</time>
      </trkpt>
      <trkpt lat="45.71837" lon="4.90773">
        <ele>238.12762</ele>
        <time>2012-04-10T16:41:53Z</time>
      </trkpt>
      <trkpt lat="45.7185" lon="4.90753">
        <ele>243.49988</ele>
        <time>2012-04-10T16:42:05Z</time>
      </trkpt>
      <trkpt lat="45.7185" lon="4.90727">
        <ele>245.44745</ele>
        <time>2012-04-10T16:42:20Z</time>
      </trkpt>
      <trkpt lat="45.71834" lon="4.90712">
        <ele>244.21158</ele>
        <time>2012-04-10T16:42:29Z</time>
      </trkpt>
      <trkpt lat="45.71825" lon="4.90688">
        <ele>240.69347</ele>
        <time>2012-04-10T16:42:41Z</time>
      </trkpt>
      <trkpt lat="45.71814" lon="4.90666">
        <ele>239.17253</ele>
        <time>2012-04-10T16:42:51Z</time>
      </trkpt>
      <trkpt lat="45.71805" lon="4.90641">
        <ele>239.54776</ele>
        <time>2012-04-10T16:43:05Z</time>
      </trkpt>
      <trkpt lat="45.71794" lon="4.90618">
        <ele>237.80525</ele>
        <time>2012-04-10T16:43:19Z</time>
      </trkpt>
      <trkpt lat="45.71782" lon="4.90598">
        <ele>236.9821</ele>
        <time>2012-04-10T16:43:31Z</time>
      </trkpt>
      <trkpt lat="45.71772" lon="4.90575">
        <ele>237.45859</ele>
        <time>2012-04-10T16:43:41Z</time>
      </trkpt>
      <trkpt lat="45.71759" lon="4.90557">
        <ele>239.12727</ele>
        <time>2012-04-10T16:43:52Z</time>
      </trkpt>
      <trkpt lat="45.71746" lon="4.90537">
        <ele>238.95506</ele>
        <time>2012-04-10T16:44:01Z</time>
      </trkpt>
      <trkpt lat="45.71742" lon="4.90512">
        <ele>241.05875</ele>
        <time>2012-04-10T16:44:15Z</time>
      </trkpt>
      <trkpt lat="45.71727" lon="4.90496">
        <ele>242.69597</ele>
        <time>2012-04-10T16:44:28Z</time>
      </trkpt>
      <trkpt lat="45.71707" lon="4.90496">
        <ele>240.47885</ele>
        <time>2012-04-10T16:44:36Z</time>
      </trkpt>
      <trkpt lat="45.71689" lon="4.90489">
        <ele>236.3157</ele>
        <time>2012-04-10T16:44:47Z</time>
      </trkpt>
      <trkpt lat="45.71671" lon="4.90481">
        <ele>233.5149</ele>
        <time>2012-04-10T16:45:01Z</time>
      </trkpt>
      <trkpt lat="45.71654" lon="4.90473">
        <ele>234.63808</ele>
        <time>2012-04-10T16:45:12Z</time>
      </trkpt>
      <trkpt lat="45.71636" lon="4.90467">
        <ele>235.03291</ele>
        <time>2012-04-10T16:45:24Z</time>
      </trkpt>
      <trkpt lat="45.71617" lon="4.90465">
        <ele>236.80064</ele>
        <time>2012-04-10T16:45:35Z</time>
      </trkpt>
      <trkpt lat="45.71598" lon="4.90476">
        <ele>235.47559</ele>
        <time>2012-04-10T16:45:47Z</time>
      </trkpt>
      <trkpt lat="45.71586" lon="4.90496">
        <ele>234.29642</ele>
        <time>2012-04-10T16:45:59Z</time>
      </trkpt>
      <trkpt lat="45.71575" lon="4.90519">
        <ele>235.93314</ele>
        <time>2012-04-10T16:46:12Z</time>
      </trkpt>
      <trkpt lat="45.71559" lon="4.90529">
        <ele>235.37538</ele>
        <time>2012-04-10T16:46:24Z</time>
      </trkpt>
      <trkpt lat="45.7154" lon="4.9053">
        <ele>232.52176</ele>
        <time>2012-04-10T16:46:36Z</time>
      </trkpt>
      <trkpt lat="45.71523" lon="4.90519">
        <ele>231.04407</ele>
        <time>2012-04-10T16:46:49Z</time>
      </trkpt>
      <trkpt lat="45.71513" lon="4.90496">
        <ele>233.85567</ele>
        <time>2012-04-10T16:47:00Z</time>
      </trkpt>
      <trkpt lat="45.71497" lon="4.90482">
        <ele>235.26686</ele>
        <time>2012-04-10T16:47:10Z</time>
      </trkpt>
      <trkpt lat="45.71483" lon="4.90464">
        <ele>238.22359</ele>
        <time>2012-04-10T16:47:20Z</time>
      </trkpt>
      <trkpt lat="45.71465" lon="4.90453">
        <ele>238.1246</ele>
        <time>2012-04-10T16:47:40Z</time>
      </trkpt>
      <trkpt lat="45.71449" lon="4.90439">
        <ele>236.97833</ele>
        <time>2012-04-10T16:47:48Z</time>
      </trkpt>
      <trkpt lat="45.71434" lon="4.90425">
        <ele>237.43657</ele>
        <time>2012-04-10T16:47:56Z</time>
      </trkpt>
      <trkpt lat="45.71423" lon="4.90401">
        <ele>236.67636</ele>
        <time>2012-04-10T16:48:08Z</time>
      </trkpt>
      <trkpt lat="45.71411" lon="4.90382">
        <ele>237.06749</ele>
        <time>2012-04-10T16:48:20Z</time>
      </trkpt>
      <trkpt lat="45.71395" lon="4.90367">
        <ele>240.25073</ele>
        <time>2012-04-10T16:48:33Z</time>
      </trkpt>
      <trkpt lat="45.71376" lon="4.90363">
        <ele>239.50403</ele>
        <time>2012-04-10T16:48:43Z</time>
      </trkpt>
      <trkpt lat="45.71358" lon="4.90353">
        <ele>239.09404</ele>
        <time>2012-04-10T16:48:52Z</time>
      </trkpt>
      <trkpt lat="45.71342" lon="4.90338">
        <ele>240.67313</ele>
        <time>2012-04-10T16:49:02Z</time>
      </trkpt>
      <trkpt lat="45.71337" lon="4.90313">
        <ele>237.93689</ele>
        <time>2012-04-10T16:49:12Z</time>
      </trkpt>
      <trkpt lat="45.71337" lon="4.90285">
        <ele>236.0169</ele>
        <time>2012-04-10T16:49:25Z</time>
      </trkpt>
      <trkpt lat="45.71337" lon="4.90258">
        <ele>234.60039</ele>
        <time>2012-04-10T16:49:37Z</time>
      </trkpt>
      <trkpt lat="45.71339" lon="4.90231">
        <ele>235.5722</ele>
        <time>2012-04-10T16:49:48Z</time>
      </trkpt>
      <trkpt lat="45.71349" lon="4.90209">
        <ele>236.9641</ele>
        <time>2012-04-10T16:49:58Z</time>
      </trkpt>
      <trkpt lat="45.71353" lon="4.90183">
        <ele>235.02481</ele>
        <time>2012-04-10T16:50:10Z</time>
      </trkpt>
      <trkpt lat="45.71365" lon="4.90162">
        <ele>234.7564</ele>
        <time>2012-04-10T16:50:18Z</time>
      </trkpt>
      <trkpt lat="45.7137" lon="4.90137">
        <ele>232.89278</ele>
        <time>2012-04-10T16:50:30Z</time>
      </trkpt>
      <trkpt lat="45.71374" lon="4.90111">
        <ele>234.81744</ele>
        <time>2012-04-10T16:50:45Z</time>
      </trkpt>
      <trkpt lat="45.71388" lon="4.90093">
        <ele>237.10832</ele>
        <time>2012-04-10T16:50:55Z</time>
      </trkpt>
      <trkpt lat="45.71401" lon="4.90072">
        <ele>236.17798</ele>
        <time>2012-04-10T16:51:06Z</time>
      </trkpt>
      <trkpt lat="45.71416" lon="4.9005">
        <ele>234.07893</ele>
        <time>2012-04-10T16:51:15Z</time>
      </trkpt>
      <trkpt lat="45.71434" lon="4.90025">
        <ele>232.61409</ele>
        <time>2012-04-10T16:51:29Z</time>
      </trkpt>
      <trkpt lat="45.71443" lon="4.90001">
        <ele>233.4789</ele>
        <time>2012-04-10T16:51:42Z</time>
      </trkpt>
      <trkpt lat="45.71442" lon="4.89975">
        <ele>233.21375</ele>
        <time>2012-04-10T16:51:55Z</time>
      </trkpt>
      <trkpt lat="45.71447" lon="4.89949">
        <ele>231.18375</ele>
        <time>2012-04-10T16:52:03Z</time>
      </trkpt>
      <trkpt lat="45.71456" lon="4.89926">
        <ele>225.5158</ele>
        <time>2012-04-10T16:52:14Z</time>
      </trkpt>
      <trkpt lat="45.71471" lon="4.89908">
        <ele>224.07004</ele>
        <time>2012-04-10T16:52:28Z</time>
      </trkpt>
      <trkpt lat="45.71481" lon="4.89883">
        <ele>223.96884</ele>
        <time>2012-04-10T16:52:40Z</time>
      </trkpt>
      <trkpt lat="45.71481" lon="4.89856">
        <ele>223.78687</ele>
        <time>2012-04-10T16:52:53Z</time>
      </trkpt>
      <trkpt lat="45.71484" lon="4.89828">
        <ele>229.54785</ele>
        <time>2012-04-10T16:53:05Z</time>
      </trkpt>
      <trkpt lat="45.71493" lon="4.89806">
        <ele>230.65355</ele>
        <time>2012-04-10T16:53:15Z</time>
      </trkpt>
      <trkpt lat="45.71501" lon="4.89781">
        <ele>231.68762</ele>
        <time>2012-04-10T16:53:27Z</time>
      </trkpt>
      <trkpt lat="45.71511" lon="4.8976">
        <ele>233.49681</ele>
        <time>2012-04-10T16:53:39Z</time>
      </trkpt>
      <trkpt lat="45.71528" lon="4.89747">
        <ele>234.1883</ele>
        <time>2012-04-10T16:53:49Z</time>
      </trkpt>
      <trkpt lat="45.71544" lon="4.89731">
        <ele>232.98141</ele>
        <time>2012-04-10T16:54:01Z</time>
      </trkpt>
      <trkpt lat="45.71551" lon="4.89705">
        <ele>233.6538</ele>
        <time>2012-04-10T16:54:13Z</time>
      </trkpt>
      <trkpt lat="45.71551" lon="4.8968">
        <ele>234.13545</ele>
        <time>2012-04-10T16:54:24Z</time>
      </trkpt>
      <trkpt lat="45.71551" lon="4.89654">
        <ele>234.43932</ele>
        <time>2012-04-10T16:54:35Z</time>
      </trkpt>
      <trkpt lat="45.71545" lon="4.89628">
        <ele>235.44463</ele>
        <time>2012-04-10T16:54:47Z</time>
      </trkpt>
      <trkpt lat="45.71546" lon="4.89601">
        <ele>233.18059</ele>
        <time>2012-04-10T16:54:58Z</time>
      </trkpt>
      <trkpt lat="45.71553" lon="4.89576">
        <ele>234.75285</ele>
        <time>2012-04-10T16:55:08Z</time>
      </trkpt>
      <trkpt lat="45.7156" lon="4.8955">
        <ele>233.09026</ele>
        <time>2012-04-10T16:55:20Z</time>
      </trkpt>
      <trkpt lat="45.71567" lon="4.89525">
        <ele>231.97652</ele>
        <time>2012-04-10T16:55:31Z</time>
      </trkpt>
      <trkpt lat="45.71575" lon="4.895">
        <ele>231.04149</ele>
        <time>2012-04-10T16:55:43Z</time>
      </trkpt>
      <trkpt lat="45.71586" lon="4.89476">
        <ele>231.00175</ele>
        <time>2012-04-10T16:55:54Z</time>
      </trkpt>
      <trkpt lat="45.71597" lon="4.89454">
        <ele>230.9422</ele>
        <time>2012-04-10T16:56:05Z</time>
      </trkpt>
      <trkpt lat="45.71609" lon="4.89433">
        <ele>230.2904</ele>
        <time>2012-04-10T16:56:17Z</time>
      </trkpt>
      <trkpt lat="45.71621" lon="4.89412">
        <ele>231.53206</ele>
        <time>2012-04-10T16:56:27Z</time>
      </trkpt>
      <trkpt lat="45.71634" lon="4.89392">
        <ele>231.11372</ele>
        <time>2012-04-10T16:56:38Z</time>
      </trkpt>
      <trkpt lat="45.71648" lon="4.89373">
        <ele>231.80087</ele>
        <time>2012-04-10T16:56:49Z</time>
      </trkpt>
      <trkpt lat="45.71663" lon="4.89358">
        <ele>231.12227</ele>
        <time>2012-04-10T16:56:59Z</time>
      </trkpt>
      <trkpt lat="45.71678" lon="4.89343">
        <ele>229.77019</ele>
        <time>2012-04-10T16:57:09Z</time>
      </trkpt>
      <trkpt lat="45.71694" lon="4.89328">
        <ele>229.98662</ele>
        <time>2012-04-10T16:57:22Z</time>
      </trkpt>
      <trkpt lat="45.7171" lon="4.89315">
        <ele>229.07452</ele>
        <time>2012-04-10T16:57:33Z</time>
      </trkpt>
      <trkpt lat="45.71728" lon="4.89307">
        <ele>228.78342</ele>
        <time>2012-04-10T16:57:44Z</time>
      </trkpt>
      <trkpt lat="45.71747" lon="4.893">
        <ele>231.77428</ele>
        <time>2012-04-10T16:57:55Z</time>
      </trkpt>
      <trkpt lat="45.71765" lon="4.89293">
        <ele>233.86719</ele>
        <time>2012-04-10T16:58:04Z</time>
      </trkpt>
      <trkpt lat="45.71784" lon="4.89295">
        <ele>233.64607</ele>
        <time>2012-04-10T16:58:16Z</time>
      </trkpt>
      <trkpt lat="45.71802" lon="4.89293">
        <ele>236.67068</ele>
        <time>2012-04-10T16:58:26Z</time>
      </trkpt>
      <trkpt lat="45.7182" lon="4.8929">
        <ele>236.4695</ele>
        <time>2012-04-10T16:58:37Z</time>
      </trkpt>
      <trkpt lat="45.7184" lon="4.89283">
        <ele>236.26115</ele>
        <time>2012-04-10T16:58:50Z</time>
      </trkpt>
      <trkpt lat="45.71859" lon="4.89279">
        <ele>236.46434</ele>
        <time>2012-04-10T16:59:03Z</time>
      </trkpt>
      <trkpt lat="45.71877" lon="4.89287">
        <ele>235.88242</ele>
        <time>2012-04-10T16:59:15Z</time>
      </trkpt>
      <trkpt lat="45.71896" lon="4.89291">
        <ele>235.12686</ele>
        <time>2012-04-10T16:59:25Z</time>
      </trkpt>
      <trkpt lat="45.71914" lon="4.89299">
        <ele>234.71567</ele>
        <time>2012-04-10T16:59:35Z</time>
      </trkpt>
      <trkpt lat="45.71931" lon="4.89304">
        <ele>234.08107</ele>
        <time>2012-04-10T16:59:47Z</time>
      </trkpt>
      <trkpt lat="45.71948" lon="4.89316">
        <ele>232.9299</ele>
        <time>2012-04-10T17:00:00Z</time>
      </trkpt>
      <trkpt lat="45.71966" lon="4.89325">
        <ele>230.77975</ele>
        <time>2012-04-10T17:00:11Z</time>
      </trkpt>
      <trkpt lat="45.71984" lon="4.89336">
        <ele>232.33904</ele>
        <time>2012-04-10T17:00:22Z</time>
      </trkpt>
      <trkpt lat="45.72003" lon="4.89343">
        <ele>232.37811</ele>
        <time>2012-04-10T17:00:33Z</time>
      </trkpt>
      <trkpt lat="45.72021" lon="4.89353">
        <ele>234.36148</ele>
        <time>2012-04-10T17:00:45Z</time>
      </trkpt>
      <trkpt lat="45.72038" lon="4.89362">
        <ele>233.81638</ele>
        <time>2012-04-10T17:00:57Z</time>
      </trkpt>
      <trkpt lat="45.72054" lon="4.89373">
        <ele>235.55855</ele>
        <time>2012-04-10T17:01:08Z</time>
      </trkpt>
      <trkpt lat="45.72073" lon="4.89382">
        <ele>234.3732</ele>
        <time>2012-04-10T17:01:20Z</time>
      </trkpt>
      <trkpt lat="45.7209" lon="4.89392">
        <ele>234.84303</ele>
        <time>2012-04-10T17:01:30Z</time>
      </trkpt>
      <trkpt lat="45.72107" lon="4.89403">
        <ele>237.05775</ele>
        <time>2012-04-10T17:01:44Z</time>
      </trkpt>
      <trkpt lat="45.72125" lon="4.89414">
        <ele>235.52382</ele>
        <time>2012-04-10T17:01:56Z</time>
      </trkpt>
      <trkpt lat="45.72144" lon="4.89419">
        <ele>234.30017</ele>
        <time>2012-04-10T17:02:06Z</time>
      </trkpt>
      <trkpt lat="45.72163" lon="4.89429">
        <ele>235.0954</ele>
        <time>2012-04-10T17:02:19Z</time>
      </trkpt>
      <trkpt lat="45.7218" lon="4.89439">
        <ele>237.53253</ele>
        <time>2012-04-10T17:02:29Z</time>
      </trkpt>
      <trkpt lat="45.72194" lon="4.89455">
        <ele>236.16148</ele>
        <time>2012-04-10T17:02:41Z</time>
      </trkpt>
      <trkpt lat="45.72208" lon="4.89473">
        <ele>236.65898</ele>
        <time>2012-04-10T17:02:51Z</time>
      </trkpt>
      <trkpt lat="45.72226" lon="4.89484">
        <ele>237.09009</ele>
        <time>2012-04-10T17:03:03Z</time>
      </trkpt>
      <trkpt lat="45.72242" lon="4.89497">
        <ele>238.38988</ele>
        <time>2012-04-10T17:03:14Z</time>
      </trkpt>
      <trkpt lat="45.72261" lon="4.89497">
        <ele>235.77469</ele>
        <time>2012-04-10T17:03:26Z</time>
      </trkpt>
      <trkpt lat="45.7228" lon="4.8949">
        <ele>233.83992</ele>
        <time>2012-04-10T17:03:38Z</time>
      </trkpt>
      <trkpt lat="45.72298" lon="4.89499">
        <ele>234.85976</ele>
        <time>2012-04-10T17:03:49Z</time>
      </trkpt>
      <trkpt lat="45.72315" lon="4.89489">
        <ele>234.19814</ele>
        <time>2012-04-10T17:04:01Z</time>
      </trkpt>
      <trkpt lat="45.72329" lon="4.89472">
        <ele>237.75935</ele>
        <time>2012-04-10T17:04:14Z</time>
      </trkpt>
      <trkpt lat="45.72343" lon="4.89456">
        <ele>237.56726</ele>
        <time>2012-04-10T17:04:23Z</time>
      </trkpt>
      <trkpt lat="45.72353" lon="4.89432">
        <ele>240.57576</ele>
        <time>2012-04-10T17:04:37Z</time>
      </trkpt>
      <trkpt lat="45.72365" lon="4.89412">
        <ele>238.42807</ele>
        <time>2012-04-10T17:04:52Z</time>
      </trkpt>
      <trkpt lat="45.72384" lon="4.89408">
        <ele>235.19171</ele>
        <time>2012-04-10T17:05:03Z</time>
      </trkpt>
      <trkpt lat="45.72393" lon="4.89384">
        <ele>232.79408</ele>
        <time>2012-04-10T17:05:19Z</time>
      </trkpt>
      <trkpt lat="45.72393" lon="4.89356">
        <ele>234.59065</ele>
        <time>2012-04-10T17:05:29Z</time>
      </trkpt>
      <trkpt lat="45.72385" lon="4.89333">
        <ele>235.17021</ele>
        <time>2012-04-10T17:05:40Z</time>
      </trkpt>
      <trkpt lat="45.72386" lon="4.89307">
        <ele>234.31723</ele>
        <time>2012-04-10T17:05:50Z</time>
      </trkpt>
      <trkpt lat="45.72385" lon="4.89282">
        <ele>233.04155</ele>
        <time>2012-04-10T17:06:01Z</time>
      </trkpt>
      <trkpt lat="45.72393" lon="4.89256">
        <ele>233.00175</ele>
        <time>2012-04-10T17:06:12Z</time>
      </trkpt>
      <trkpt lat="45.72409" lon="4.89243">
        <ele>230.59262</ele>
        <time>2012-04-10T17:06:22Z</time>
      </trkpt>
      <trkpt lat="45.72417" lon="4.89217">
        <ele>227.19508</ele>
        <time>2012-04-10T17:06:35Z</time>
      </trkpt>
      <trkpt lat="45.7243" lon="4.89198">
        <ele>227.00824</ele>
        <time>2012-04-10T17:06:46Z</time>
      </trkpt>
      <trkpt lat="45.72442" lon="4.89178">
        <ele>227.92526</ele>
        <time>2012-04-10T17:06:57Z</time>
      </trkpt>
      <trkpt lat="45.72448" lon="4.89152">
        <ele>228.43382</ele>
        <time>2012-04-10T17:07:08Z</time>
      </trkpt>
      <trkpt lat="45.72467" lon="4.89146">
        <ele>228.98654</ele>
        <time>2012-04-10T17:07:21Z</time>
      </trkpt>
      <trkpt lat="45.72482" lon="4.89163">
        <ele>231.17397</ele>
        <time>2012-04-10T17:07:31Z</time>
      </trkpt>
      <trkpt lat="45.72494" lon="4.89184">
        <ele>231.04984</ele>
        <time>2012-04-10T17:07:43Z</time>
      </trkpt>
      <trkpt lat="45.72509" lon="4.892">
        <ele>232.3747</ele>
        <time>2012-04-10T17:07:54Z</time>
      </trkpt>
      <trkpt lat="45.72525" lon="4.89217">
        <ele>232.46448</ele>
        <time>2012-04-10T17:08:05Z</time>
      </trkpt>
      <trkpt lat="45.72538" lon="4.89236">
        <ele>236.59508</ele>
        <time>2012-04-10T17:08:20Z</time>
      </trkpt>
      <trkpt lat="45.72549" lon="4.89256">
        <ele>238.59729</ele>
        <time>2012-04-10T17:08:34Z</time>
      </trkpt>
      <trkpt lat="45.72558" lon="4.89279">
        <ele>239.70432</ele>
        <time>2012-04-10T17:08:49Z</time>
      </trkpt>
      <trkpt lat="45.72574" lon="4.89291">
        <ele>238.37712</ele>
        <time>2012-04-10T17:09:04Z</time>
      </trkpt>
      <trkpt lat="45.72591" lon="4.893">
        <ele>239.70616</ele>
        <time>2012-04-10T17:09:24Z</time>
      </trkpt>
      <trkpt lat="45.72606" lon="4.89317">
        <ele>239.22858</ele>
        <time>2012-04-10T17:09:36Z</time>
      </trkpt>
      <trkpt lat="45.7262" lon="4.89336">
        <ele>237.73653</ele>
        <time>2012-04-10T17:09:54Z</time>
      </trkpt>
      <trkpt lat="45.72636" lon="4.89349">
        <ele>239.42738</ele>
        <time>2012-04-10T17:10:06Z</time>
      </trkpt>
      <trkpt lat="45.72653" lon="4.8936">
        <ele>244.19386</ele>
        <time>2012-04-10T17:10:23Z</time>
      </trkpt>
      <trkpt lat="45.72663" lon="4.89335">
        <ele>249.03285</ele>
        <time>2012-04-10T17:10:48Z</time>
      </trkpt>
      <trkpt lat="45.72668" lon="4.89309">
        <ele>250.38638</ele>
        <time>2012-04-10T17:10:59Z</time>
      </trkpt>
      <trkpt lat="45.72676" lon="4.89285">
        <ele>247.61696</ele>
        <time>2012-04-10T17:11:14Z</time>
      </trkpt>
      <trkpt lat="45.72687" lon="4.89264">
        <ele>243.50508</ele>
        <time>2012-04-10T17:11:27Z</time>
      </trkpt>
      <trkpt lat="45.72699" lon="4.89245">
        <ele>243.06583</ele>
        <time>2012-04-10T17:11:38Z</time>
      </trkpt>
      <trkpt lat="45.72713" lon="4.89227">
        <ele>241.1588</ele>
        <time>2012-04-10T17:11:51Z</time>
      </trkpt>
      <trkpt lat="45.72727" lon="4.8921">
        <ele>243.49086</ele>
        <time>2012-04-10T17:12:00Z</time>
      </trkpt>
      <trkpt lat="45.72741" lon="4.89192">
        <ele>247.52913</ele>
        <time>2012-04-10T17:12:13Z</time>
      </trkpt>
      <trkpt lat="45.72754" lon="4.89175">
        <ele>248.0425</ele>
        <time>2012-04-10T17:12:23Z</time>
      </trkpt>
      <trkpt lat="45.72773" lon="4.89167">
        <ele>250.92122</ele>
        <time>2012-04-10T17:12:38Z</time>
      </trkpt>
      <trkpt lat="45.72792" lon="4.89166">
        <ele>252.87373</ele>
        <time>2012-04-10T17:12:54Z</time>
      </trkpt>
      <trkpt lat="45.72806" lon="4.89183">
        <ele>250.36557</ele>
        <time>2012-04-10T17:13:02Z</time>
      </trkpt>
      <trkpt lat="45.72823" lon="4.89198">
        <ele>252.1813</ele>
        <time>2012-04-10T17:13:16Z</time>
      </trkpt>
      <trkpt lat="45.72843" lon="4.89202">
        <ele>254.01306</ele>
        <time>2012-04-10T17:13:30Z</time>
      </trkpt>
      <trkpt lat="45.72862" lon="4.89203">
        <ele>252.77899</ele>
        <time>2012-04-10T17:13:39Z</time>
      </trkpt>
      <trkpt lat="45.72882" lon="4.89203">
        <ele>251.9803</ele>
        <time>2012-04-10T17:13:51Z</time>
      </trkpt>
      <trkpt lat="45.72901" lon="4.89203">
        <ele>250.24857</ele>
        <time>2012-04-10T17:14:04Z</time>
      </trkpt>
      <trkpt lat="45.72919" lon="4.89208">
        <ele>250.947</ele>
        <time>2012-04-10T17:14:13Z</time>
      </trkpt>
      <trkpt lat="45.72934" lon="4.89225">
        <ele>252.03772</ele>
        <time>2012-04-10T17:14:24Z</time>
      </trkpt>
      <trkpt lat="45.72944" lon="4.89246">
        <ele>249.53389</ele>
        <time>2012-04-10T17:14:41Z</time>
      </trkpt>
      <trkpt lat="45.72934" lon="4.89269">
        <ele>248.24266</ele>
        <time>2012-04-10T17:14:57Z</time>
      </trkpt>
      <trkpt lat="45.72933" lon="4.89296">
        <ele>245.57098</ele>
        <time>2012-04-10T17:15:10Z</time>
      </trkpt>
      <trkpt lat="45.72925" lon="4.89323">
        <ele>245.7861</ele>
        <time>2012-04-10T17:15:26Z</time>
      </trkpt>
      <trkpt lat="45.72911" lon="4.89342">
        <ele>247.0217</ele>
        <time>2012-04-10T17:15:42Z</time>
      </trkpt>
      <trkpt lat="45.72894" lon="4.89356">
        <ele>247.06096</ele>
        <time>2012-04-10T17:15:51Z</time>
      </trkpt>
      <trkpt lat="45.72878" lon="4.89371">
        <ele>245.37422</ele>
        <time>2012-04-10T17:16:01Z</time>
      </trkpt>
      <trkpt lat="45.72862" lon="4.89386">
        <ele>243.42519</ele>
        <time>2012-04-10T17:16:09Z</time>
      </trkpt>
      <trkpt lat="45.72853" lon="4.89363">
        <ele>244.09021</ele>
        <time>2012-04-10T17:16:29Z</time>
      </trkpt>
      <trkpt lat="45.72853" lon="4.89335">
        <ele>245.52682</ele>
        <time>2012-04-10T17:16:41Z</time>
      </trkpt>
      <trkpt lat="45.72863" lon="4.89312">
        <ele>248.91318</ele>
        <time>2012-04-10T17:16:51Z</time>
      </trkpt>
      <trkpt lat="45.72867" lon="4.89284">
        <ele>250.33374</ele>
        <time>2012-04-10T17:17:02Z</time>
      </trkpt>
      <trkpt lat="45.72871" lon="4.89256">
        <ele>252.12257</ele>
        <time>2012-04-10T17:17:16Z</time>
      </trkpt>
      <trkpt lat="45.72886" lon="4.89241">
        <ele>251.60197</ele>
        <time>2012-04-10T17:17:25Z</time>
      </trkpt>
      <trkpt lat="45.72904" lon="4.89233">
        <ele>252.29459</ele>
        <time>2012-04-10T17:17:32Z</time>
      </trkpt>
      <trkpt lat="45.72922" lon="4.89235">
        <ele>254.19688</ele>
        <time>2012-04-10T17:17:43Z</time>
      </trkpt>
      <trkpt lat="45.72918" lon="4.8921">
        <ele>250.92667</ele>
        <time>2012-04-10T17:18:01Z</time>
      </trkpt>
      <trkpt lat="45.729" lon="4.89202">
        <ele>251.4291</ele>
        <time>2012-04-10T17:18:15Z</time>
      </trkpt>
      <trkpt lat="45.72882" lon="4.89199">
        <ele>252.49614</ele>
        <time>2012-04-10T17:18:26Z</time>
      </trkpt>
      <trkpt lat="45.72864" lon="4.89201">
        <ele>251.06187</ele>
        <time>2012-04-10T17:18:37Z</time>
      </trkpt>
      <trkpt lat="45.72845" lon="4.89204">
        <ele>250.53307</ele>
        <time>2012-04-10T17:18:50Z</time>
      </trkpt>
      <trkpt lat="45.72827" lon="4.89197">
        <ele>250.79869</ele>
        <time>2012-04-10T17:19:07Z</time>
      </trkpt>
      <trkpt lat="45.7281" lon="4.89183">
        <ele>253.41035</ele>
        <time>2012-04-10T17:19:17Z</time>
      </trkpt>
      <trkpt lat="45.72792" lon="4.89178">
        <ele>255.4127</ele>
        <time>2012-04-10T17:19:28Z</time>
      </trkpt>
      <trkpt lat="45.72773" lon="4.89183">
        <ele>255.39282</ele>
        <time>2012-04-10T17:19:37Z</time>
      </trkpt>
      <trkpt lat="45.72755" lon="4.89191">
        <ele>253.52115</ele>
        <time>2012-04-10T17:19:48Z</time>
      </trkpt>
      <trkpt lat="45.7274" lon="4.89206">
        <ele>252.83652</ele>
        <time>2012-04-10T17:19:59Z</time>
      </trkpt>
      <trkpt lat="45.72724" lon="4.8922">
        <ele>256.77597</ele>
        <time>2012-04-10T17:20:11Z</time>
      </trkpt>
      <trkpt lat="45.72711" lon="4.89239">
        <ele>262.52094</ele>
        <time>2012-04-10T17:20:24Z</time>
      </trkpt>
      <trkpt lat="45.72702" lon="4.89262">
        <ele>261.63235</ele>
        <time>2012-04-10T17:20:38Z</time>
      </trkpt>
      <trkpt lat="45.72695" lon="4.89287">
        <ele>259.76526</ele>
        <time>2012-04-10T17:20:50Z</time>
      </trkpt>
      <trkpt lat="45.72684" lon="4.89309">
        <ele>257.55692</ele>
        <time>2012-04-10T17:21:05Z</time>
      </trkpt>
      <trkpt lat="45.72673" lon="4.89331">
        <ele>255.1386</ele>
        <time>2012-04-10T17:21:13Z</time>
      </trkpt>
      <trkpt lat="45.72662" lon="4.89352">
        <ele>252.69427</ele>
        <time>2012-04-10T17:21:22Z</time>
      </trkpt>
      <trkpt lat="45.72644" lon="4.89368">
        <ele>253.35149</ele>
        <time>2012-04-10T17:21:33Z</time>
      </trkpt>
      <trkpt lat="45.7263" lon="4.89386">
        <ele>255.05766</ele>
        <time>2012-04-10T17:21:45Z</time>
      </trkpt>
      <trkpt lat="45.72614" lon="4.89404">
        <ele>254.69382</ele>
        <time>2012-04-10T17:21:57Z</time>
      </trkpt>
      <trkpt lat="45.72599" lon="4.8942">
        <ele>254.11624</ele>
        <time>2012-04-10T17:22:07Z</time>
      </trkpt>
      <trkpt lat="45.72584" lon="4.89435">
        <ele>256.59927</ele>
        <time>2012-04-10T17:22:19Z</time>
      </trkpt>
      <trkpt lat="45.72572" lon="4.89454">
        <ele>256.06555</ele>
        <time>2012-04-10T17:22:32Z</time>
      </trkpt>
      <trkpt lat="45.72561" lon="4.89474">
        <ele>254.53935</ele>
        <time>2012-04-10T17:22:43Z</time>
      </trkpt>
      <trkpt lat="45.72547" lon="4.89493">
        <ele>253.79665</ele>
        <time>2012-04-10T17:23:02Z</time>
      </trkpt>
      <trkpt lat="45.72539" lon="4.89518">
        <ele>253.16826</ele>
        <time>2012-04-10T17:23:16Z</time>
      </trkpt>
      <trkpt lat="45.72531" lon="4.89543">
        <ele>252.02997</ele>
        <time>2012-04-10T17:23:23Z</time>
      </trkpt>
      <trkpt lat="45.7252" lon="4.89568">
        <ele>253.23528</ele>
        <time>2012-04-10T17:23:32Z</time>
      </trkpt>
      <trkpt lat="45.7251" lon="4.89592">
        <ele>253.18182</ele>
        <time>2012-04-10T17:23:42Z</time>
      </trkpt>
      <trkpt lat="45.72504" lon="4.89617">
        <ele>253.98506</ele>
        <time>2012-04-10T17:23:52Z</time>
      </trkpt>
      <trkpt lat="45.72497" lon="4.89643">
        <ele>254.94867</ele>
        <time>2012-04-10T17:24:08Z</time>
      </trkpt>
      <trkpt lat="45.72489" lon="4.89666">
        <ele>256.8085</ele>
        <time>2012-04-10T17:24:17Z</time>
      </trkpt>
      <trkpt lat="45.72477" lon="4.89686">
        <ele>256.7327</ele>
        <time>2012-04-10T17:24:27Z</time>
      </trkpt>
      <trkpt lat="45.7246" lon="4.89702">
        <ele>254.16556</ele>
        <time>2012-04-10T17:24:39Z</time>
      </trkpt>
      <trkpt lat="45.72443" lon="4.89715">
        <ele>257.02142</ele>
        <time>2012-04-10T17:24:46Z</time>
      </trkpt>
      <trkpt lat="45.7243" lon="4.89735">
        <ele>257.70197</ele>
        <time>2012-04-10T17:24:58Z</time>
      </trkpt>
      <trkpt lat="45.72414" lon="4.89747">
        <ele>251.44543</ele>
        <time>2012-04-10T17:25:07Z</time>
      </trkpt>
      <trkpt lat="45.72396" lon="4.89755">
        <ele>252.79375</ele>
        <time>2012-04-10T17:25:21Z</time>
      </trkpt>
      <trkpt lat="45.7238" lon="4.8977">
        <ele>252.9736</ele>
        <time>2012-04-10T17:25:32Z</time>
      </trkpt>
      <trkpt lat="45.72361" lon="4.89777">
        <ele>254.71863</ele>
        <time>2012-04-10T17:25:47Z</time>
      </trkpt>
      <trkpt lat="45.72343" lon="4.89784">
        <ele>251.97772</ele>
        <time>2012-04-10T17:25:58Z</time>
      </trkpt>
      <trkpt lat="45.72332" lon="4.89761">
        <ele>253.05157</ele>
        <time>2012-04-10T17:26:14Z</time>
      </trkpt>
      <trkpt lat="45.72328" lon="4.89734">
        <ele>250.24687</ele>
        <time>2012-04-10T17:26:25Z</time>
      </trkpt>
      <trkpt lat="45.72323" lon="4.89708">
        <ele>249.00641</ele>
        <time>2012-04-10T17:26:36Z</time>
      </trkpt>
      <trkpt lat="45.7232" lon="4.89681">
        <ele>248.9708</ele>
        <time>2012-04-10T17:26:46Z</time>
      </trkpt>
      <trkpt lat="45.72318" lon="4.89654">
        <ele>249.58316</ele>
        <time>2012-04-10T17:26:59Z</time>
      </trkpt>
      <trkpt lat="45.72322" lon="4.89627">
        <ele>251.72702</ele>
        <time>2012-04-10T17:27:08Z</time>
      </trkpt>
      <trkpt lat="45.7232" lon="4.89599">
        <ele>251.82076</ele>
        <time>2012-04-10T17:27:19Z</time>
      </trkpt>
      <trkpt lat="45.72302" lon="4.89598">
        <ele>250.55891</ele>
        <time>2012-04-10T17:27:30Z</time>
      </trkpt>
      <trkpt lat="45.72294" lon="4.89621">
        <ele>248.6612</ele>
        <time>2012-04-10T17:27:41Z</time>
      </trkpt>
      <trkpt lat="45.723" lon="4.89647">
        <ele>245.50949</ele>
        <time>2012-04-10T17:27:49Z</time>
      </trkpt>
      <trkpt lat="45.72305" lon="4.89674">
        <ele>245.64139</ele>
        <time>2012-04-10T17:28:01Z</time>
      </trkpt>
      <trkpt lat="45.72305" lon="4.89701">
        <ele>243.21689</ele>
        <time>2012-04-10T17:28:12Z</time>
      </trkpt>
      <trkpt lat="45.72301" lon="4.89727">
        <ele>242.54655</ele>
        <time>2012-04-10T17:28:21Z</time>
      </trkpt>
      <trkpt lat="45.72296" lon="4.89754">
        <ele>245.10507</ele>
        <time>2012-04-10T17:28:33Z</time>
      </trkpt>
      <trkpt lat="45.72295" lon="4.8978">
        <ele>243.05574</ele>
        <time>2012-04-10T17:28:44Z</time>
      </trkpt>
      <trkpt lat="45.7229" lon="4.89807">
        <ele>241.49</ele>
        <time>2012-04-10T17:28:54Z</time>
      </trkpt>
      <trkpt lat="45.72291" lon="4.89835">
        <ele>241.72845</ele>
        <time>2012-04-10T17:29:05Z</time>
      </trkpt>
      <trkpt lat="45.72289" lon="4.89863">
        <ele>241.62595</ele>
        <time>2012-04-10T17:29:19Z</time>
      </trkpt>
      <trkpt lat="45.72282" lon="4.89887">
        <ele>241.53386</ele>
        <time>2012-04-10T17:29:35Z</time>
      </trkpt>
      <trkpt lat="45.72285" lon="4.89915">
        <ele>241.79791</ele>
        <time>2012-04-10T17:29:50Z</time>
      </trkpt>
      <trkpt lat="45.72285" lon="4.89941">
        <ele>243.36919</ele>
        <time>2012-04-10T17:30:01Z</time>
      </trkpt>
      <trkpt lat="45.72284" lon="4.89968">
        <ele>249.02966</ele>
        <time>2012-04-10T17:30:18Z</time>
      </trkpt>
      <trkpt lat="45.72291" lon="4.89992">
        <ele>248.31897</ele>
        <time>2012-04-10T17:30:32Z</time>
      </trkpt>
      <trkpt lat="45.7229" lon="4.90019">
        <ele>250.57877</ele>
        <time>2012-04-10T17:30:49Z</time>
      </trkpt>
      <trkpt lat="45.72288" lon="4.90046">
        <ele>252.23679</ele>
        <time>2012-04-10T17:31:08Z</time>
      </trkpt>
      <trkpt lat="45.72282" lon="4.90073">
        <ele>254.86671</ele>
        <time>2012-04-10T17:31:16Z</time>
      </trkpt>
      <trkpt lat="45.7228" lon="4.901">
        <ele>256.73648</ele>
        <time>2012-04-10T17:31:30Z</time>
      </trkpt>
      <trkpt lat="45.72275" lon="4.90126">
        <ele>254.60492</ele>
        <time>2012-04-10T17:31:43Z</time>
      </trkpt>
      <trkpt lat="45.72267" lon="4.90152">
        <ele>257.31824</ele>
        <time>2012-04-10T17:31:55Z</time>
      </trkpt>
      <trkpt lat="45.72269" lon="4.90181">
        <ele>259.9482</ele>
        <time>2012-04-10T17:32:08Z</time>
      </trkpt>
      <trkpt lat="45.72262" lon="4.90207">
        <ele>261.09842</ele>
        <time>2012-04-10T17:32:18Z</time>
      </trkpt>
      <trkpt lat="45.72262" lon="4.90234">
        <ele>260.8179</ele>
        <time>2012-04-10T17:32:30Z</time>
      </trkpt>
      <trkpt lat="45.72265" lon="4.90263">
        <ele>260.74423</ele>
        <time>2012-04-10T17:32:42Z</time>
      </trkpt>
      <trkpt lat="45.7225" lon="4.90247">
        <ele>258.49347</ele>
        <time>2012-04-10T17:33:16Z</time>
      </trkpt>
      <trkpt lat="45.72254" lon="4.9022">
        <ele>259.43173</ele>
        <time>2012-04-10T17:33:28Z</time>
      </trkpt>
      <trkpt lat="45.72251" lon="4.90194">
        <ele>258.31342</ele>
        <time>2012-04-10T17:33:39Z</time>
      </trkpt>
      <trkpt lat="45.7224" lon="4.90172">
        <ele>256.81744</ele>
        <time>2012-04-10T17:33:49Z</time>
      </trkpt>
      <trkpt lat="45.72241" lon="4.90145">
        <ele>253.85521</ele>
        <time>2012-04-10T17:34:01Z</time>
      </trkpt>
      <trkpt lat="45.72245" lon="4.90119">
        <ele>251.51447</ele>
        <time>2012-04-10T17:34:13Z</time>
      </trkpt>
      <trkpt lat="45.72247" lon="4.90091">
        <ele>249.91948</ele>
        <time>2012-04-10T17:34:23Z</time>
      </trkpt>
      <trkpt lat="45.72244" lon="4.90063">
        <ele>249.73752</ele>
        <time>2012-04-10T17:34:33Z</time>
      </trkpt>
      <trkpt lat="45.72237" lon="4.90037">
        <ele>249.19904</ele>
        <time>2012-04-10T17:34:44Z</time>
      </trkpt>
      <trkpt lat="45.72225" lon="4.90059">
        <ele>242.91753</ele>
        <time>2012-04-10T17:35:12Z</time>
      </trkpt>
      <trkpt lat="45.72223" lon="4.90088">
        <ele>239.65034</ele>
        <time>2012-04-10T17:35:18Z</time>
      </trkpt>
      <trkpt lat="45.7222" lon="4.90115">
        <ele>241.03769</ele>
        <time>2012-04-10T17:35:28Z</time>
      </trkpt>
      <trkpt lat="45.72217" lon="4.90144">
        <ele>241.08961</ele>
        <time>2012-04-10T17:35:41Z</time>
      </trkpt>
      <trkpt lat="45.72214" lon="4.90175">
        <ele>241.70403</ele>
        <time>2012-04-10T17:36:04Z</time>
      </trkpt>
      <trkpt lat="45.72213" lon="4.90203">
        <ele>240.11652</ele>
        <time>2012-04-10T17:36:10Z</time>
      </trkpt>
      <trkpt lat="45.7221" lon="4.90234">
        <ele>242.29106</ele>
        <time>2012-04-10T17:36:20Z</time>
      </trkpt>
      <trkpt lat="45.72214" lon="4.90261">
        <ele>242.82356</ele>
        <time>2012-04-10T17:36:28Z</time>
      </trkpt>
      <trkpt lat="45.7221" lon="4.9029">
        <ele>242.22406</ele>
        <time>2012-04-10T17:36:37Z</time>
      </trkpt>
      <trkpt lat="45.72213" lon="4.90318">
        <ele>239.327</ele>
        <time>2012-04-10T17:36:49Z</time>
      </trkpt>
      <trkpt lat="45.72215" lon="4.90344">
        <ele>238.61627</ele>
        <time>2012-04-10T17:37:01Z</time>
      </trkpt>
      <trkpt lat="45.72215" lon="4.90371">
        <ele>235.92252</ele>
        <time>2012-04-10T17:37:13Z</time>
      </trkpt>
      <trkpt lat="45.72226" lon="4.90393">
        <ele>235.32542</ele>
        <time>2012-04-10T17:37:24Z</time>
      </trkpt>
      <trkpt lat="45.72243" lon="4.90408">
        <ele>236.83994</ele>
        <time>2012-04-10T17:37:37Z</time>
      </trkpt>
      <trkpt lat="45.7226" lon="4.90419">
        <ele>235.15613</ele>
        <time>2012-04-10T17:37:55Z</time>
      </trkpt>
      <trkpt lat="45.72274" lon="4.90438">
        <ele>234.45576</ele>
        <time>2012-04-10T17:38:01Z</time>
      </trkpt>
      <trkpt lat="45.72283" lon="4.9046">
        <ele>235.55515</ele>
        <time>2012-04-10T17:38:12Z</time>
      </trkpt>
      <trkpt lat="45.72292" lon="4.90484">
        <ele>240.93872</ele>
        <time>2012-04-10T17:38:25Z</time>
      </trkpt>
      <trkpt lat="45.72304" lon="4.90506">
        <ele>241.92146</ele>
        <time>2012-04-10T17:38:36Z</time>
      </trkpt>
      <trkpt lat="45.7231" lon="4.90532">
        <ele>237.15073</ele>
        <time>2012-04-10T17:38:45Z</time>
      </trkpt>
      <trkpt lat="45.72317" lon="4.90558">
        <ele>236.34375</ele>
        <time>2012-04-10T17:39:00Z</time>
      </trkpt>
      <trkpt lat="45.72316" lon="4.90584">
        <ele>234.25359</ele>
        <time>2012-04-10T17:39:09Z</time>
      </trkpt>
      <trkpt lat="45.72328" lon="4.90608">
        <ele>231.32773</ele>
        <time>2012-04-10T17:39:18Z</time>
      </trkpt>
      <trkpt lat="45.7233" lon="4.90635">
        <ele>232.96773</ele>
        <time>2012-04-10T17:39:27Z</time>
      </trkpt>
      <trkpt lat="45.72332" lon="4.90661">
        <ele>238.60973</ele>
        <time>2012-04-10T17:39:45Z</time>
      </trkpt>
      <trkpt lat="45.7234" lon="4.90688">
        <ele>240.72563</ele>
        <time>2012-04-10T17:40:02Z</time>
      </trkpt>
      <trkpt lat="45.72342" lon="4.90717">
        <ele>242.57858</ele>
        <time>2012-04-10T17:40:20Z</time>
      </trkpt>
      <trkpt lat="45.7235" lon="4.90746">
        <ele>239.23958</ele>
        <time>2012-04-10T17:40:36Z</time>
      </trkpt>
      <trkpt lat="45.72361" lon="4.90767">
        <ele>238.53198</ele>
        <time>2012-04-10T17:40:43Z</time>
      </trkpt>
      <trkpt lat="45.72361" lon="4.90793">
        <ele>237.36354</ele>
        <time>2012-04-10T17:40:48Z</time>
      </trkpt>
      <trkpt lat="45.72369" lon="4.90822">
        <ele>235.57677</ele>
        <time>2012-04-10T17:41:01Z</time>
      </trkpt>
      <trkpt lat="45.72382" lon="4.90845">
        <ele>235.59799</ele>
        <time>2012-04-10T17:41:09Z</time>
      </trkpt>
      <trkpt lat="45.72389" lon="4.90869">
        <ele>234.08087</ele>
        <time>2012-04-10T17:41:17Z</time>
      </trkpt>
      <trkpt lat="45.72397" lon="4.90894">
        <ele>235.13692</ele>
        <time>2012-04-10T17:41:29Z</time>
      </trkpt>
      <trkpt lat="45.72413" lon="4.90879">
        <ele>243.39159</ele>
        <time>2012-04-10T17:41:46Z</time>
      </trkpt>
      <trkpt lat="45.72418" lon="4.90853">
        <ele>246.43848</ele>
        <time>2012-04-10T17:42:00Z</time>
      </trkpt>
      <trkpt lat="45.72412" lon="4.90828">
        <ele>248.06667</ele>
        <time>2012-04-10T17:42:12Z</time>
      </trkpt>
      <trkpt lat="45.72401" lon="4.90805">
        <ele>247.04672</ele>
        <time>2012-04-10T17:42:21Z</time>
      </trkpt>
      <trkpt lat="45.72396" lon="4.9078">
        <ele>246.89922</ele>
        <time>2012-04-10T17:42:29Z</time>
      </trkpt>
      <trkpt lat="45.72393" lon="4.90752">
        <ele>247.85895</ele>
        <time>2012-04-10T17:42:38Z</time>
      </trkpt>
      <trkpt lat="45.72385" lon="4.90727">
        <ele>249.10182</ele>
        <time>2012-04-10T17:42:47Z</time>
      </trkpt>
      <trkpt lat="45.72374" lon="4.90705">
        <ele>247.56136</ele>
        <time>2012-04-10T17:42:56Z</time>
      </trkpt>
      <trkpt lat="45.72362" lon="4.90685">
        <ele>245.41293</ele>
        <time>2012-04-10T17:43:05Z</time>
      </trkpt>
      <trkpt lat="45.72348" lon="4.90668">
        <ele>243.49426</ele>
        <time>2012-04-10T17:43:15Z</time>
      </trkpt>
      <trkpt lat="45.72335" lon="4.90644">
        <ele>242.16203</ele>
        <time>2012-04-10T17:43:23Z</time>
      </trkpt>
      <trkpt lat="45.7233" lon="4.90618">
        <ele>241.43729</ele>
        <time>2012-04-10T17:43:33Z</time>
      </trkpt>
      <trkpt lat="45.72325" lon="4.90592">
        <ele>241.97934</ele>
        <time>2012-04-10T17:43:42Z</time>
      </trkpt>
      <trkpt lat="45.72311" lon="4.90571">
        <ele>237.9688</ele>
        <time>2012-04-10T17:43:58Z</time>
      </trkpt>
      <trkpt lat="45.72303" lon="4.90545">
        <ele>237.73329</ele>
        <time>2012-04-10T17:44:09Z</time>
      </trkpt>
      <trkpt lat="45.72293" lon="4.90521">
        <ele>239.58849</ele>
        <time>2012-04-10T17:44:18Z</time>
      </trkpt>
      <trkpt lat="45.72281" lon="4.90501">
        <ele>238.17676</ele>
        <time>2012-04-10T17:44:30Z</time>
      </trkpt>
      <trkpt lat="45.72271" lon="4.90479">
        <ele>241.7293</ele>
        <time>2012-04-10T17:44:42Z</time>
      </trkpt>
      <trkpt lat="45.72258" lon="4.9046">
        <ele>239.42525</ele>
        <time>2012-04-10T17:44:53Z</time>
      </trkpt>
      <trkpt lat="45.72244" lon="4.90441">
        <ele>238.98558</ele>
        <time>2012-04-10T17:45:07Z</time>
      </trkpt>
      <trkpt lat="45.7223" lon="4.90422">
        <ele>237.70695</ele>
        <time>2012-04-10T17:45:27Z</time>
      </trkpt>
      <trkpt lat="45.72219" lon="4.904">
        <ele>236.3602</ele>
        <time>2012-04-10T17:45:33Z</time>
      </trkpt>
      <trkpt lat="45.72209" lon="4.90376">
        <ele>239.12004</ele>
        <time>2012-04-10T17:45:42Z</time>
      </trkpt>
      <trkpt lat="45.72198" lon="4.90355">
        <ele>239.13083</ele>
        <time>2012-04-10T17:45:51Z</time>
      </trkpt>
      <trkpt lat="45.7218" lon="4.90345">
        <ele>239.00737</ele>
        <time>2012-04-10T17:46:01Z</time>
      </trkpt>
      <trkpt lat="45.72165" lon="4.90331">
        <ele>237.2346</ele>
        <time>2012-04-10T17:46:12Z</time>
      </trkpt>
      <trkpt lat="45.72155" lon="4.9031">
        <ele>235.93558</ele>
        <time>2012-04-10T17:46:24Z</time>
      </trkpt>
      <trkpt lat="45.72144" lon="4.90289">
        <ele>229.08855</ele>
        <time>2012-04-10T17:46:38Z</time>
      </trkpt>
      <trkpt lat="45.72137" lon="4.90262">
        <ele>224.90651</ele>
        <time>2012-04-10T17:46:47Z</time>
      </trkpt>
      <trkpt lat="45.72131" lon="4.90238">
        <ele>226.27629</ele>
        <time>2012-04-10T17:46:56Z</time>
      </trkpt>
      <trkpt lat="45.72119" lon="4.90217">
        <ele>226.08676</ele>
        <time>2012-04-10T17:47:06Z</time>
      </trkpt>
      <trkpt lat="45.72102" lon="4.90204">
        <ele>223.78314</ele>
        <time>2012-04-10T17:47:16Z</time>
      </trkpt>
      <trkpt lat="45.72084" lon="4.90202">
        <ele>224.61522</ele>
        <time>2012-04-10T17:47:27Z</time>
      </trkpt>
      <trkpt lat="45.72064" lon="4.90192">
        <ele>225.08115</ele>
        <time>2012-04-10T17:47:34Z</time>
      </trkpt>
      <trkpt lat="45.72046" lon="4.90194">
        <ele>225.7861</ele>
        <time>2012-04-10T17:47:48Z</time>
      </trkpt>
      <trkpt lat="45.7203" lon="4.90208">
        <ele>226.26917</ele>
        <time>2012-04-10T17:48:00Z</time>
      </trkpt>
      <trkpt lat="45.72014" lon="4.9022">
        <ele>226.85268</ele>
        <time>2012-04-10T17:48:11Z</time>
      </trkpt>
      <trkpt lat="45.71995" lon="4.90229">
        <ele>227.44467</ele>
        <time>2012-04-10T17:48:24Z</time>
      </trkpt>
      <trkpt lat="45.71978" lon="4.90239">
        <ele>232.81558</ele>
        <time>2012-04-10T17:48:33Z</time>
      </trkpt>
      <trkpt lat="45.71966" lon="4.90259">
        <ele>233.7873</ele>
        <time>2012-04-10T17:48:46Z</time>
      </trkpt>
      <trkpt lat="45.71951" lon="4.90273">
        <ele>232.90715</ele>
        <time>2012-04-10T17:48:56Z</time>
      </trkpt>
      <trkpt lat="45.71936" lon="4.90289">
        <ele>232.65555</ele>
        <time>2012-04-10T17:49:07Z</time>
      </trkpt>
      <trkpt lat="45.71923" lon="4.90312">
        <ele>233.40605</ele>
        <time>2012-04-10T17:49:21Z</time>
      </trkpt>
      <trkpt lat="45.71908" lon="4.90328">
        <ele>231.26408</ele>
        <time>2012-04-10T17:49:30Z</time>
      </trkpt>
      <trkpt lat="45.71865" lon="4.90365">
        <ele>230.37656</ele>
        <time>2012-04-10T17:50:07Z</time>
      </trkpt>
      <trkpt lat="45.71846" lon="4.90373">
        <ele>230.15886</ele>
        <time>2012-04-10T17:50:10Z</time>
      </trkpt>
      <trkpt lat="45.7183" lon="4.90385">
        <ele>232.75082</ele>
        <time>2012-04-10T17:50:22Z</time>
      </trkpt>
      <trkpt lat="45.7182" lon="4.9041">
        <ele>232.82687</ele>
        <time>2012-04-10T17:50:37Z</time>
      </trkpt>
      <trkpt lat="45.7183" lon="4.90433">
        <ele>229.89085</ele>
        <time>2012-04-10T17:50:48Z</time>
      </trkpt>
      <trkpt lat="45.7184" lon="4.90455">
        <ele>228.8932</ele>
        <time>2012-04-10T17:50:58Z</time>
      </trkpt>
      <trkpt lat="45.7185" lon="4.90477">
        <ele>227.58916</ele>
        <time>2012-04-10T17:51:06Z</time>
      </trkpt>
      <trkpt lat="45.71858" lon="4.90502">
        <ele>225.54065</ele>
        <time>2012-04-10T17:51:18Z</time>
      </trkpt>
      <trkpt lat="45.71866" lon="4.90527">
        <ele>226.44026</ele>
        <time>2012-04-10T17:51:30Z</time>
      </trkpt>
      <trkpt lat="45.71873" lon="4.90552">
        <ele>226.97807</ele>
        <time>2012-04-10T17:51:40Z</time>
      </trkpt>
      <trkpt lat="45.71881" lon="4.90577">
        <ele>226.62137</ele>
        <time>2012-04-10T17:51:53Z</time>
      </trkpt>
      <trkpt lat="45.71888" lon="4.90602">
        <ele>226.95247</ele>
        <time>2012-04-10T17:52:04Z</time>
      </trkpt>
      <trkpt lat="45.71887" lon="4.90628">
        <ele>226.28082</ele>
        <time>2012-04-10T17:52:18Z</time>
      </trkpt>
      <trkpt lat="45.71883" lon="4.90653">
        <ele>227.30524</ele>
        <time>2012-04-10T17:52:31Z</time>
      </trkpt>
      <trkpt lat="45.71871" lon="4.90675">
        <ele>228.37679</ele>
        <time>2012-04-10T17:52:41Z</time>
      </trkpt>
      <trkpt lat="45.71865" lon="4.90699">
        <ele>229.43192</ele>
        <time>2012-04-10T17:52:54Z</time>
      </trkpt>
      <trkpt lat="45.71858" lon="4.90724">
        <ele>227.57538</ele>
        <time>2012-04-10T17:53:05Z</time>
      </trkpt>
      <trkpt lat="45.7185" lon="4.90749">
        <ele>225.50125</ele>
        <time>2012-04-10T17:53:16Z</time>
      </trkpt>
      <trkpt lat="45.7184" lon="4.90771">
        <ele>227.60435</ele>
        <time>2012-04-10T17:53:22Z</time>
      </trkpt>
    </trkseg>
  </trk>
</gpx>